Aviation Digital Data Service (ADDS)

Output produced by METARs form (0418 UTC 26 June 2019)
found at http://www.aviationweather.gov/metar/data/
 
Forecast for: RJCK (KUSHIRO AIRPORT , JP)
Text: TAF RJCK 252308Z 2600/2706 20013KT 9999 FEW030
Forecast period: 0000 to 1200 UTC 26 June 2019
Forecast type: FROM: standard forecast or significant change
Winds: from the SSW (200 degrees) at 15 MPH (13 knots; 6.7 m/s)
Visibility: 6 or more miles 10+ km)
Ceiling: at least 12,000 feet AGL
Clouds: few clouds at 3000 feet AGL
Weather: no significant weather forecast for this period
Text: BECMG 2612/2615 03003KT
Forecast period: 1200 to 2100 UTC 26 June 2019
Forecast type: BECOMING: Conditions expected to become as follows by 1500 UTC 26 June 2019
Winds: from the NNE (30 degrees) at 3 MPH (3 knots; 1.5 m/s)
Visibility: 6 or more miles 10+ km)
Ceiling: at least 12,000 feet AGL
Clouds: few clouds at 3000 feet AGL
Weather: no significant weather forecast for this period
Text: BECMG 2621/2700 19011KT
Forecast period: 2100 UTC 26 June 2019 to 0600 UTC 27 June 2019
Forecast type: BECOMING: Conditions expected to become as follows by 0000 UTC 27 June 2019
Winds: from the S (190 degrees) at 13 MPH (11 knots; 5.7 m/s)
Visibility: 6 or more miles 10+ km)
Ceiling: at least 12,000 feet AGL
Clouds: few clouds at 3000 feet AGL
Weather: no significant weather forecast for this period